Time;durP1;ratioP1;P1;durP2;ratioP2;P2;SDS_P1;SDS_P2;PMS_P1;PMS_P2;Temp;Humidity;BMP_temperature;BMP_pressure;BME280_temperature;BME280_humidity;BME280_pressure;Samples;Min_cycle;Max_cycle;Signal;HPM_P1;HPM_P2
2022/08/19 00:01:55;;;;;;;;;;;;;;;28.97;39.58;99043.75;4382548;32;34663;-76
2022/08/19 00:04:27;;;;;;;;;;;;;;;29.08;39.13;99037.34;4383281;32;33447;-75
2022/08/19 00:06:59;;;;;;;;;;;;;;;28.93;39.75;99045.88;4384087;32;33922;-75
2022/08/19 00:09:29;;;;;;;;;;;;;;;29.03;39.24;99044.97;4386046;32;34727;-76
2022/08/19 00:12:00;;;;;;;;;;;;;;;29.03;39.22;99042.28;4387174;32;33883;-76
2022/08/19 00:14:31;;;;;;;;;;;;;;;29.07;39.14;99039.19;4384705;32;34101;-76
2022/08/19 00:17:00;;;;;;;;;;;;;;;28.94;39.76;99038.69;4385487;32;33936;-77
2022/08/19 00:19:29;;;;;;;;;;;;;;;28.91;39.69;99047.87;4386659;32;33879;-76
2022/08/19 00:21:58;;;;;;;;;;;;;;;29.01;39.16;99045.09;4382409;32;34593;-77
2022/08/19 00:24:31;;;;;;;;;;;;;;;28.91;39.89;99041.69;4383563;32;33006;-76
2022/08/19 00:27:04;;;;;;;;;;;;;;;28.94;39.63;99041.37;4379685;32;34866;-77
2022/08/19 00:29:53;;;;;;;;;;;;;;;28.76;40.08;99035.22;4382349;32;34441;-76
2022/08/19 00:32:31;;;;;;;;;;;;;;;28.54;40.68;99040.00;4389174;32;33796;-75
2022/08/19 00:35:01;;;;;;;;;;;;;;;28.68;40.44;99049.31;4386951;32;33769;-76
2022/08/19 00:37:42;;;;;;;;;;;;;;;28.72;39.81;99045.34;4384909;32;34297;-76
2022/08/19 00:40:13;;;;;;;;;;;;;;;28.57;40.60;99045.03;4382826;32;34869;-75
2022/08/19 00:42:42;;;;;;;;;;;;;;;28.64;40.31;99046.13;4381203;32;33503;-76
2022/08/19 00:45:16;;;;;;;;;;;;;;;28.65;40.50;99047.78;4390036;32;33409;-76
2022/08/19 00:47:45;;;;;;;;;;;;;;;28.43;40.91;99040.19;4383767;32;34293;-76
2022/08/19 00:50:15;;;;;;;;;;;;;;;28.62;40.02;99039.25;4382192;32;33941;-77
2022/08/19 00:52:45;;;;;;;;;;;;;;;28.67;40.35;99027.13;4384273;32;34089;-77
2022/08/19 00:55:18;;;;;;;;;;;;;;;28.63;40.43;99028.44;4385710;32;33302;-75
2022/08/19 00:57:48;;;;;;;;;;;;;;;28.68;40.12;99038.63;4388763;32;34065;-75
2022/08/19 01:00:19;;;;;;;;;;;;;;;28.42;40.74;99033.19;4385308;32;35029;-75
2022/08/19 01:02:47;;;;;;;;;;;;;;;28.42;40.72;99043.84;4382930;32;34868;-76
2022/08/19 01:05:20;;;;;;;;;;;;;;;28.44;40.56;99031.19;4381234;32;32456;-75
2022/08/19 01:07:50;;;;;;;;;;;;;;;28.41;40.49;99026.16;4387460;32;33784;-76
2022/08/19 01:10:23;;;;;;;;;;;;;;;28.51;40.21;99024.28;4384152;32;33952;-75
2022/08/19 01:12:52;;;;;;;;;;;;;;;28.46;40.51;99024.75;4383524;32;34269;-77
2022/08/19 01:15:25;;;;;;;;;;;;;;;28.61;40.11;99021.53;4383280;32;32976;-75
2022/08/19 01:17:54;;;;;;;;;;;;;;;28.32;40.50;99019.91;4383909;32;33406;-77
2022/08/19 01:20:24;;;;;;;;;;;;;;;28.40;40.49;99019.97;4388304;32;34641;-76
2022/08/19 01:22:54;;;;;;;;;;;;;;;28.50;40.00;99028.78;4383078;32;33527;-77
2022/08/19 01:25:24;;;;;;;;;;;;;;;28.73;39.74;99025.69;4383984;32;32991;-75
2022/08/19 01:27:53;;;;;;;;;;;;;;;28.53;40.37;99022.31;4385861;32;33154;-76
2022/08/19 01:30:24;;;;;;;;;;;;;;;28.54;40.25;99018.66;4387849;32;33937;-76
2022/08/19 01:32:53;;;;;;;;;;;;;;;28.69;40.17;99017.13;4384745;32;35205;-75
2022/08/19 01:35:23;;;;;;;;;;;;;;;28.62;39.97;99015.22;4383831;32;33718;-76
2022/08/19 01:37:57;;;;;;;;;;;;;;;28.78;39.72;99014.53;4386376;32;33722;-75
2022/08/19 01:40:30;;;;;;;;;;;;;;;28.50;40.27;99006.59;4383765;32;34744;-76
2022/08/19 01:42:59;;;;;;;;;;;;;;;28.47;40.50;99009.59;4388633;32;34822;-76
2022/08/19 01:45:32;;;;;;;;;;;;;;;28.43;40.74;99006.34;4383293;32;34088;-75
2022/08/19 01:48:01;;;;;;;;;;;;;;;28.45;40.73;98990.19;4384474;32;34438;-77
2022/08/19 01:50:30;;;;;;;;;;;;;;;28.35;40.70;98992.94;4384288;32;33694;-76
2022/08/19 01:53:05;;;;;;;;;;;;;;;28.32;40.92;98987.03;4385004;32;34183;-76
2022/08/19 01:55:42;;;;;;;;;;;;;;;28.19;40.85;98979.41;4390541;32;33005;-76
2022/08/19 01:58:20;;;;;;;;;;;;;;;28.44;40.19;98980.50;4385370;32;34088;-76
2022/08/19 02:00:49;;;;;;;;;;;;;;;28.48;40.57;98976.56;4385745;32;34625;-76
2022/08/19 02:03:25;;;;;;;;;;;;;;;28.09;41.31;98974.97;4385393;32;34465;-76
2022/08/19 02:05:59;;;;;;;;;;;;;;;27.93;41.39;98958.78;4385438;32;33650;-76
2022/08/19 02:08:28;;;;;;;;;;;;;;;28.13;40.97;98964.84;4390129;32;34548;-75
2022/08/19 02:10:58;;;;;;;;;;;;;;;28.22;40.87;98966.63;4384809;32;34605;-77
2022/08/19 02:13:27;;;;;;;;;;;;;;;28.03;41.15;98970.25;4384609;32;34037;-75
2022/08/19 02:15:56;;;;;;;;;;;;;;;28.15;41.12;98972.69;4385633;32;34028;-75
2022/08/19 02:18:27;;;;;;;;;;;;;;;28.16;40.90;98975.22;4390058;32;34354;-76
2022/08/19 02:20:56;;;;;;;;;;;;;;;28.32;40.94;98969.22;4384978;32;33713;-75
2022/08/19 02:23:27;;;;;;;;;;;;;;;28.13;41.35;98969.34;4385137;32;33268;-76
2022/08/19 02:25:56;;;;;;;;;;;;;;;27.95;41.63;98953.31;4385401;32;32835;-76
2022/08/19 02:28:32;;;;;;;;;;;;;;;28.05;41.31;98940.75;4389113;32;34147;-77
2022/08/19 02:31:02;;;;;;;;;;;;;;;28.21;41.11;98946.25;4389098;32;33770;-76
2022/08/19 02:33:33;;;;;;;;;;;;;;;28.02;41.27;98949.87;4384724;32;34275;-76
2022/08/19 02:36:06;;;;;;;;;;;;;;;27.85;41.74;98956.87;4384508;32;33344;-76
2022/08/19 02:38:34;;;;;;;;;;;;;;;27.84;41.68;98971.19;4386172;32;36491;-75
2022/08/19 02:41:04;;;;;;;;;;;;;;;28.02;41.31;98968.56;4388204;32;33576;-76
2022/08/19 02:43:36;;;;;;;;;;;;;;;27.96;41.28;98957.66;4384760;32;33942;-76
2022/08/19 02:46:12;;;;;;;;;;;;;;;27.93;41.44;98965.94;4382931;32;33876;-76
2022/08/19 02:48:40;;;;;;;;;;;;;;;27.93;41.31;98974.78;4384228;32;34044;-76
2022/08/19 02:51:09;;;;;;;;;;;;;;;28.01;40.86;98966.88;4384678;32;33891;-76
2022/08/19 02:53:38;;;;;;;;;;;;;;;28.05;40.85;98970.94;4389704;32;34085;-76
2022/08/19 02:56:10;;;;;;;;;;;;;;;28.15;40.66;98983.34;4385052;32;33596;-76
2022/08/19 02:58:40;;;;;;;;;;;;;;;28.21;40.44;98990.78;4386071;32;33005;-77
2022/08/19 03:01:15;;;;;;;;;;;;;;;28.24;40.63;98985.13;4383492;32;34051;-77
2022/08/19 03:03:44;;;;;;;;;;;;;;;27.70;41.65;98978.81;4385819;32;33972;-77
2022/08/19 03:06:16;;;;;;;;;;;;;;;27.90;41.46;98977.75;4388131;32;33038;-75
2022/08/19 03:08:45;;;;;;;;;;;;;;;27.96;41.11;98981.66;4387078;32;33454;-76
2022/08/19 03:11:14;;;;;;;;;;;;;;;27.94;41.42;98987.13;4383799;32;33923;-76
2022/08/19 03:13:44;;;;;;;;;;;;;;;28.24;40.83;98990.47;4384581;32;34717;-77
2022/08/19 03:16:16;;;;;;;;;;;;;;;28.06;41.15;98995.78;4390109;32;32697;-76
2022/08/19 03:18:46;;;;;;;;;;;;;;;28.06;41.27;99001.09;4387087;32;34239;-76
2022/08/19 03:21:16;;;;;;;;;;;;;;;28.02;41.40;99000.56;4383218;32;34978;-76
2022/08/19 03:23:47;;;;;;;;;;;;;;;28.05;41.47;98996.75;4379779;32;34459;-76
2022/08/19 03:26:22;;;;;;;;;;;;;;;27.92;41.36;99001.59;4385199;32;34177;-77
2022/08/19 03:28:51;;;;;;;;;;;;;;;28.05;41.04;99002.06;4389729;32;34859;-76
2022/08/19 03:31:31;;;;;;;;;;;;;;;27.78;41.67;99005.56;4385883;32;34596;-76
2022/08/19 03:34:19;;;;;;;;;;;;;;;27.90;41.36;99004.41;4385512;32;34870;-76
2022/08/19 03:36:55;;;;;;;;;;;;;;;27.73;41.94;99007.81;4387110;32;33928;-77
2022/08/19 03:39:25;;;;;;;;;;;;;;;27.54;42.32;99004.22;4385214;32;33737;-76
2022/08/19 03:41:59;;;;;;;;;;;;;;;27.77;41.88;99003.88;4389445;32;34744;-77
2022/08/19 03:44:54;;;;;;;;;;;;;;;27.89;41.66;99015.22;4390050;32;34087;-76
2022/08/19 03:47:23;;;;;;;;;;;;;;;27.49;42.47;99014.50;4384602;32;33889;-76
2022/08/19 03:49:55;;;;;;;;;;;;;;;27.65;42.32;99017.37;4383502;32;34490;-77
2022/08/19 03:52:23;;;;;;;;;;;;;;;27.76;42.02;99026.19;4379366;32;33869;-77
2022/08/19 03:54:56;;;;;;;;;;;;;;;27.74;42.13;99025.47;4389791;32;33644;-76
2022/08/19 03:57:25;;;;;;;;;;;;;;;27.80;42.02;99020.41;4384870;32;34295;-77
2022/08/19 04:00:04;;;;;;;;;;;;;;;27.91;41.86;99016.75;4384533;32;33833;-76
2022/08/19 04:02:52;;;;;;;;;;;;;;;27.43;42.67;99020.41;4383470;32;35025;-76
2022/08/19 04:05:29;;;;;;;;;;;;;;;27.96;41.37;99021.66;4385188;32;34015;-75
2022/08/19 04:07:58;;;;;;;;;;;;;;;27.87;41.77;99028.69;4365169;32;779517;-76
2022/08/19 04:10:30;;;;;;;;;;;;;;;27.73;42.37;99031.81;4388702;32;33118;-77
2022/08/19 04:12:58;;;;;;;;;;;;;;;27.77;42.11;99043.88;4383691;32;34023;-77
2022/08/19 04:15:41;;;;;;;;;;;;;;;27.66;42.22;99044.88;4384010;32;34114;-76
2022/08/19 04:18:14;;;;;;;;;;;;;;;27.67;42.82;99046.56;4384659;32;32523;-76
2022/08/19 04:20:50;;;;;;;;;;;;;;;27.70;42.73;99034.78;4388552;32;33776;-76
2022/08/19 04:23:21;;;;;;;;;;;;;;;27.80;42.49;99040.91;4383777;32;35053;-76
2022/08/19 04:25:50;;;;;;;;;;;;;;;27.69;43.02;99038.41;4384725;32;34800;-75
2022/08/19 04:28:18;;;;;;;;;;;;;;;27.78;42.29;99042.88;4385379;32;33543;-76
2022/08/19 04:30:48;;;;;;;;;;;;;;;27.61;42.72;99045.28;4383538;32;34153;-76
2022/08/19 04:33:22;;;;;;;;;;;;;;;27.87;42.50;99045.53;4389194;32;35990;-76
2022/08/19 04:36:00;;;;;;;;;;;;;;;27.74;42.79;99047.66;4383936;32;33809;-76
2022/08/19 04:38:28;;;;;;;;;;;;;;;27.58;42.89;99040.25;4383755;32;32730;-76
2022/08/19 04:43:48;;;;;;;;;;;;;;;27.69;42.63;99049.94;4384902;32;34996;-76
2022/08/19 04:46:19;;;;;;;;;;;;;;;27.52;43.17;99048.00;4389538;32;34602;-77
2022/08/19 04:49:12;;;;;;;;;;;;;;;27.73;42.77;99045.97;4388456;32;33132;-76
2022/08/19 04:51:47;;;;;;;;;;;;;;;27.85;42.50;99049.31;4386914;32;33428;-76
2022/08/19 04:54:15;;;;;;;;;;;;;;;27.81;42.57;99042.56;4384617;32;34928;-77
2022/08/19 04:57:09;;;;;;;;;;;;;;;27.57;43.10;99059.06;4384989;32;34293;-76
2022/08/19 04:59:38;;;;;;;;;;;;;;;27.77;42.82;99054.53;4387013;32;34156;-77
2022/08/19 05:02:08;;;;;;;;;;;;;;;27.87;42.58;99055.34;4388919;32;34084;-76
2022/08/19 05:04:39;;;;;;;;;;;;;;;27.84;42.53;99055.66;4383755;32;34263;-77
2022/08/19 05:07:09;;;;;;;;;;;;;;;27.67;42.94;99054.56;4384174;32;34548;-75
2022/08/19 05:09:41;;;;;;;;;;;;;;;27.89;42.46;99053.38;4385326;32;32649;-76
2022/08/19 05:12:27;;;;;;;;;;;;;;;27.87;42.62;99055.34;4384490;32;33721;-77
2022/08/19 05:14:57;;;;;;;;;;;;;;;27.73;42.81;99056.63;4389215;32;34066;-77
2022/08/19 05:17:26;;;;;;;;;;;;;;;27.87;42.55;99050.03;4383094;32;34925;-77
2022/08/19 05:22:54;;;;;;;;;;;;;;;27.84;42.57;99053.00;4382698;32;33710;-77
2022/08/19 05:25:24;;;;;;;;;;;;;;;27.98;42.32;99057.84;4382567;32;34249;-77
2022/08/19 05:27:52;;;;;;;;;;;;;;;27.75;42.95;99059.16;4388729;32;34424;-76
2022/08/19 05:30:23;;;;;;;;;;;;;;;28.31;41.82;99055.56;4383255;32;34418;-76
2022/08/19 05:33:13;;;;;;;;;;;;;;;28.44;41.61;99052.53;4378827;32;35015;-77
2022/08/19 05:35:52;;;;;;;;;;;;;;;28.49;41.50;99067.16;4383462;32;33673;-75
2022/08/19 05:38:20;;;;;;;;;;;;;;;28.55;41.55;99060.34;4384699;32;33640;-77
2022/08/19 05:40:50;;;;;;;;;;;;;;;28.90;40.79;99064.88;4388482;32;33318;-76
2022/08/19 05:43:18;;;;;;;;;;;;;;;28.72;40.95;99062.19;4384042;32;34967;-76
2022/08/19 05:45:50;;;;;;;;;;;;;;;28.98;40.41;99063.28;4384019;32;33203;-77
2022/08/19 05:48:20;;;;;;;;;;;;;;;29.26;39.80;99062.22;4388166;32;33461;-78
2022/08/19 05:50:58;;;;;;;;;;;;;;;29.35;39.50;99063.09;4387742;32;33572;-76
2022/08/19 05:53:27;;;;;;;;;;;;;;;29.03;40.17;99059.16;4385641;32;34724;-77
2022/08/19 05:55:56;;;;;;;;;;;;;;;29.13;39.89;99065.28;4383720;32;34108;-77
2022/08/19 05:58:26;;;;;;;;;;;;;;;29.08;39.88;99064.06;4385179;32;34582;-77
2022/08/19 06:01:04;;;;;;;;;;;;;;;29.33;39.90;99063.28;4382954;32;33526;-77
2022/08/19 06:03:39;;;;;;;;;;;;;;;29.29;39.54;99061.06;4387930;32;34162;-77
2022/08/19 06:06:10;;;;;;;;;;;;;;;28.71;40.86;99051.69;4382649;32;35007;-78
2022/08/19 06:08:49;;;;;;;;;;;;;;;29.05;40.58;99061.69;4383703;32;33946;-76
2022/08/19 06:11:33;;;;;;;;;;;;;;;29.27;39.69;99050.53;4383388;32;33134;-77
2022/08/19 06:14:04;;;;;;;;;;;;;;;29.03;39.96;99047.63;4382557;32;34346;-76
2022/08/19 06:16:35;;;;;;;;;;;;;;;29.04;39.70;99049.31;4388336;32;33597;-76
2022/08/19 06:19:06;;;;;;;;;;;;;;;28.78;40.43;99050.09;4386055;32;34332;-77
2022/08/19 06:21:37;;;;;;;;;;;;;;;28.84;40.13;99049.47;4383154;32;33483;-77
2022/08/19 06:24:11;;;;;;;;;;;;;;;29.09;40.21;99045.22;4381345;32;33721;-77
2022/08/19 06:26:43;;;;;;;;;;;;;;;28.83;40.17;99041.63;4383716;32;32869;-77
2022/08/19 06:29:18;;;;;;;;;;;;;;;28.75;40.17;99039.69;4387775;32;33800;-77
2022/08/19 06:31:55;;;;;;;;;;;;;;;28.56;40.61;99040.72;4386443;32;33784;-76
2022/08/19 06:34:24;;;;;;;;;;;;;;;28.83;40.25;99042.47;4382346;32;34505;-77
2022/08/19 06:36:59;;;;;;;;;;;;;;;28.65;40.42;99037.09;4384846;32;33934;-77
2022/08/19 06:39:28;;;;;;;;;;;;;;;28.42;40.98;99034.00;4388294;32;33299;-77
2022/08/19 06:42:00;;;;;;;;;;;;;;;28.92;40.21;99019.31;4390352;32;33808;-77
2022/08/19 06:44:35;;;;;;;;;;;;;;;29.12;39.93;99028.06;4382951;32;33337;-77
2022/08/19 06:47:13;;;;;;;;;;;;;;;29.02;39.88;99027.25;4381700;32;34072;-76
2022/08/19 06:50:02;;;;;;;;;;;;;;;29.29;39.22;99035.19;4386205;32;33863;-77
2022/08/19 06:52:35;;;;;;;;;;;;;;;29.18;39.78;99048.78;4381988;32;33879;-77
2022/08/19 06:55:08;;;;;;;;;;;;;;;29.40;39.21;99051.94;4389850;32;34631;-77
2022/08/19 06:57:37;;;;;;;;;;;;;;;29.22;39.57;99057.34;4382799;32;35012;-77
2022/08/19 07:00:13;;;;;;;;;;;;;;;29.65;38.72;99067.16;4383035;32;33673;-76
2022/08/19 07:02:47;;;;;;;;;;;;;;;29.37;39.30;99070.97;4385911;32;33593;-78
2022/08/19 07:05:24;;;;;;;;;;;;;;;29.92;37.88;99076.03;4381290;32;34323;-77
2022/08/19 07:07:57;;;;;;;;;;;;;;;29.97;38.08;99079.06;4387916;32;36350;-76
2022/08/19 07:10:34;;;;;;;;;;;;;;;30.07;38.01;99079.78;4388701;32;34106;-76
2022/08/19 07:13:05;;;;;;;;;;;;;;;30.16;37.61;99075.31;4380527;32;34153;-76
2022/08/19 07:15:38;;;;;;;;;;;;;;;30.27;38.04;99080.38;4383631;32;34146;-76
2022/08/19 07:18:15;;;;;;;;;;;;;;;30.21;37.97;99078.34;4388351;32;34423;-75
2022/08/19 07:20:44;;;;;;;;;;;;;;;30.61;37.36;99084.84;4391378;32;34779;-76
2022/08/19 07:23:14;;;;;;;;;;;;;;;30.87;36.74;99087.44;4385640;32;32674;-77
2022/08/19 07:25:44;;;;;;;;;;;;;;;30.54;37.07;99092.72;4377839;32;33966;-76
2022/08/19 07:28:22;;;;;;;;;;;;;;;30.67;37.09;99088.72;4387080;32;34184;-76
2022/08/19 07:31:01;;;;;;;;;;;;;;;30.66;36.70;99079.81;4389078;32;34069;-76
2022/08/19 07:33:32;;;;;;;;;;;;;;;30.79;36.61;99087.41;4392066;32;32684;-75
2022/08/19 07:36:02;;;;;;;;;;;;;;;30.48;37.47;99084.47;4386646;32;34442;-76
2022/08/19 07:38:38;;;;;;;;;;;;;;;30.93;36.16;99083.25;4372524;32;34061;-76
2022/08/19 07:41:31;;;;;;;;;;;;;;;31.10;36.13;99076.06;4373788;32;34322;-76
2022/08/19 07:44:07;;;;;;;;;;;;;;;30.88;36.48;99081.09;4384067;32;33422;-76
2022/08/19 07:46:37;;;;;;;;;;;;;;;31.19;36.41;99078.56;4392032;32;33734;-77
2022/08/19 07:49:07;;;;;;;;;;;;;;;31.38;35.47;99074.72;4390630;32;33227;-75
2022/08/19 07:51:36;;;;;;;;;;;;;;;31.39;35.39;99080.94;4386166;32;33428;-75
2022/08/19 07:54:06;;;;;;;;;;;;;;;31.58;34.99;99082.44;4375488;32;33464;-76
2022/08/19 07:56:34;;;;;;;;;;;;;;;31.30;35.19;99082.78;4372155;32;33576;-77
2022/08/19 07:59:08;;;;;;;;;;;;;;;31.34;35.27;99086.81;4376209;32;34774;-77
2022/08/19 08:01:39;;;;;;;;;;;;;;;31.87;34.55;99087.22;4373028;32;34243;-76
2022/08/19 08:12:47;;;;;;;;;;;;;;;31.76;33.68;99080.41;4379040;32;33722;-78
2022/08/19 08:15:38;;;;;;;;;;;;;;;32.20;33.41;99085.31;4371056;32;33251;-75
2022/08/19 08:18:10;;;;;;;;;;;;;;;32.19;33.13;99083.66;4376567;32;34470;-75
2022/08/19 08:20:39;;;;;;;;;;;;;;;32.78;32.57;99090.41;4384155;32;34335;-75
2022/08/19 08:23:32;;;;;;;;;;;;;;;32.36;32.14;99083.56;4385679;32;34241;-76
2022/08/19 08:26:04;;;;;;;;;;;;;;;32.59;31.82;99089.84;4385490;32;33075;-76
2022/08/19 08:28:36;;;;;;;;;;;;;;;32.70;31.57;99081.38;4384803;32;34013;-76
2022/08/19 08:31:13;;;;;;;;;;;;;;;33.15;30.59;99082.44;4389084;32;34383;-76
2022/08/19 08:33:42;;;;;;;;;;;;;;;33.42;30.13;99074.81;4386011;32;35590;-76
2022/08/19 08:36:11;;;;;;;;;;;;;;;33.22;29.96;99077.16;4383714;32;33480;-79
2022/08/19 08:38:45;;;;;;;;;;;;;;;33.51;29.60;99078.25;4386046;32;34392;-75
2022/08/19 08:41:19;;;;;;;;;;;;;;;33.31;29.68;99067.19;4391864;32;34202;-76
2022/08/19 08:43:50;;;;;;;;;;;;;;;33.51;29.81;99051.34;4391295;32;34224;-76
2022/08/19 08:46:28;;;;;;;;;;;;;;;33.05;30.00;99046.06;4388623;32;33299;-76
2022/08/19 08:49:03;;;;;;;;;;;;;;;33.64;28.67;99046.22;4388136;32;34070;-75
2022/08/19 08:51:34;;;;;;;;;;;;;;;33.53;28.43;99066.28;4386075;32;33771;-76
2022/08/19 08:54:09;;;;;;;;;;;;;;;33.77;28.25;99076.00;4390724;32;33828;-77
2022/08/19 08:56:43;;;;;;;;;;;;;;;33.67;28.91;99070.06;4390667;32;33578;-76
2022/08/19 08:59:16;;;;;;;;;;;;;;;33.77;28.82;99062.53;4384665;32;33644;-76
2022/08/19 09:01:45;;;;;;;;;;;;;;;33.57;29.21;99064.13;4390082;32;35230;-75
2022/08/19 09:04:14;;;;;;;;;;;;;;;33.62;28.93;99052.81;4385898;32;33740;-76
2022/08/19 09:06:51;;;;;;;;;;;;;;;33.18;29.28;99058.88;4390966;32;33404;-76
2022/08/19 09:09:21;;;;;;;;;;;;;;;33.67;28.72;99058.47;4385921;32;33932;-76
2022/08/19 09:11:57;;;;;;;;;;;;;;;33.84;28.21;99053.75;4387602;32;32693;-75
2022/08/19 09:14:35;;;;;;;;;;;;;;;34.11;27.57;99052.25;4387079;32;33631;-76
2022/08/19 09:17:27;;;;;;;;;;;;;;;34.40;27.13;99046.81;4385891;32;33636;-76
2022/08/19 09:20:08;;;;;;;;;;;;;;;34.54;27.04;99046.97;4386367;32;33479;-76
2022/08/19 09:22:37;;;;;;;;;;;;;;;34.22;26.63;99042.88;4390278;32;34533;-76
2022/08/19 09:25:06;;;;;;;;;;;;;;;34.18;26.91;99035.16;4385336;32;34378;-75
2022/08/19 09:27:37;;;;;;;;;;;;;;;34.43;27.31;99032.13;4384224;32;32895;-77
2022/08/19 09:30:16;;;;;;;;;;;;;;;34.45;27.08;99029.25;4386915;32;33784;-76
2022/08/19 09:32:48;;;;;;;;;;;;;;;34.79;26.66;99034.81;4384661;32;33798;-76
2022/08/19 09:35:24;;;;;;;;;;;;;;;34.83;26.68;99033.41;4390933;32;33647;-76
2022/08/19 09:37:56;;;;;;;;;;;;;;;34.78;26.66;99038.53;4377624;32;32705;-77
2022/08/19 09:40:30;;;;;;;;;;;;;;;34.85;26.09;99038.63;4377678;32;34161;-77
2022/08/19 09:43:07;;;;;;;;;;;;;;;34.72;26.78;99028.53;4373219;32;33539;-77
2022/08/19 09:45:41;;;;;;;;;;;;;;;34.79;26.08;99033.97;4376228;32;34323;-77
2022/08/19 09:48:11;;;;;;;;;;;;;;;34.63;26.96;99025.13;4382088;32;33356;-77
2022/08/19 09:50:56;;;;;;;;;;;;;;;35.06;26.58;99018.87;4386932;32;34828;-77
2022/08/19 09:53:28;;;;;;;;;;;;;;;35.07;26.80;99015.16;4369599;32;33699;-77
2022/08/19 09:55:59;;;;;;;;;;;;;;;35.19;26.39;99016.34;4378489;32;34796;-77
2022/08/19 09:58:31;;;;;;;;;;;;;;;34.98;26.60;99014.47;4383434;32;33800;-76
2022/08/19 10:01:02;;;;;;;;;;;;;;;35.30;26.53;99012.25;4389095;32;33395;-76
2022/08/19 10:03:33;;;;;;;;;;;;;;;35.10;27.13;99016.66;4376781;32;33675;-76
2022/08/19 10:06:06;;;;;;;;;;;;;;;35.47;26.24;99012.78;4384659;32;34832;-76
2022/08/19 10:08:44;;;;;;;;;;;;;;;35.61;26.15;99009.16;4381176;32;33820;-76
2022/08/19 10:11:24;;;;;;;;;;;;;;;35.55;26.00;99012.63;4384332;32;34730;-77
2022/08/19 10:14:07;;;;;;;;;;;;;;;35.89;26.14;98997.50;4387401;32;34161;-78
2022/08/19 10:16:44;;;;;;;;;;;;;;;35.87;25.75;99002.25;4381141;32;34115;-77
2022/08/19 10:19:15;;;;;;;;;;;;;;;36.21;25.72;99001.38;4379345;32;33642;-77
2022/08/19 10:21:53;;;;;;;;;;;;;;;36.00;25.57;99001.47;4372478;32;34028;-78
2022/08/19 10:24:33;;;;;;;;;;;;;;;36.09;25.69;98993.03;4385339;32;35002;-77
2022/08/19 10:27:06;;;;;;;;;;;;;;;36.05;25.76;98989.03;4391263;32;34039;-77
2022/08/19 10:29:38;;;;;;;;;;;;;;;35.88;25.38;98995.81;4387610;32;33207;-76
2022/08/19 10:32:18;;;;;;;;;;;;;;;36.16;25.30;98992.22;4390163;32;34615;-78
2022/08/19 10:35:01;;;;;;;;;;;;;;;36.05;25.49;98999.84;4380613;32;34372;-77
2022/08/19 10:37:36;;;;;;;;;;;;;;;36.40;25.41;98999.75;4383220;32;34171;-76
2022/08/19 10:40:18;;;;;;;;;;;;;;;36.68;24.70;99001.50;4385693;32;34066;-78
2022/08/19 10:42:47;;;;;;;;;;;;;;;36.68;23.89;98994.25;4387231;32;33962;-76
2022/08/19 10:45:16;;;;;;;;;;;;;;;36.76;23.43;98992.38;4386202;32;34697;-77
2022/08/19 10:47:48;;;;;;;;;;;;;;;37.02;23.31;98996.94;4386173;32;34484;-77
2022/08/19 10:53:04;;;;;;;;;;;;;;;37.26;23.63;98992.78;4357176;32;34289;-78
2022/08/19 10:58:25;;;;;;;;;;;;;;;37.25;22.92;98997.38;4355200;32;33955;-76
2022/08/19 11:00:54;;;;;;;;;;;;;;;37.58;22.65;98991.94;4348842;32;33174;-78
2022/08/19 11:03:29;;;;;;;;;;;;;;;37.71;22.73;98991.06;4346991;32;33907;-77
2022/08/19 11:05:58;;;;;;;;;;;;;;;37.75;22.35;98992.28;4354086;32;34244;-77
2022/08/19 11:08:27;;;;;;;;;;;;;;;37.51;22.21;99001.91;4358319;32;33615;-77
2022/08/19 11:11:00;;;;;;;;;;;;;;;37.87;21.50;98994.34;4351407;32;33180;-77
2022/08/19 11:13:33;;;;;;;;;;;;;;;38.12;22.09;99000.72;4345157;32;34095;-76
2022/08/19 11:16:02;;;;;;;;;;;;;;;37.88;21.28;98993.28;4351966;32;35313;-78
2022/08/19 11:18:40;;;;;;;;;;;;;;;37.96;21.75;98996.59;4355423;32;34550;-78
2022/08/19 11:21:10;;;;;;;;;;;;;;;38.14;21.29;98998.62;4354438;32;33999;-76
2022/08/19 11:23:43;;;;;;;;;;;;;;;38.02;21.14;99002.22;4346630;32;33973;-76
2022/08/19 11:26:12;;;;;;;;;;;;;;;38.20;21.71;99000.47;4340823;32;33740;-76
2022/08/19 11:28:42;;;;;;;;;;;;;;;38.24;20.83;98998.16;4344592;32;33534;-76
2022/08/19 11:31:20;;;;;;;;;;;;;;;38.46;21.05;98998.69;4382644;32;33618;-77
2022/08/19 11:33:52;;;;;;;;;;;;;;;38.80;21.73;99001.97;4384211;32;34797;-77
2022/08/19 11:36:26;;;;;;;;;;;;;;;38.71;21.01;99003.28;4382703;32;35147;-77
2022/08/19 11:38:54;;;;;;;;;;;;;;;38.90;20.60;99005.03;4380019;32;33822;-78
2022/08/19 11:41:29;;;;;;;;;;;;;;;38.92;20.16;99000.25;4376014;32;33135;-76
2022/08/19 11:43:58;;;;;;;;;;;;;;;39.17;20.65;98999.41;4386786;32;34190;-76
2022/08/19 11:46:33;;;;;;;;;;;;;;;39.32;20.83;98990.94;4381723;32;35057;-78
2022/08/19 11:49:07;;;;;;;;;;;;;;;39.54;20.85;98994.91;4370831;32;33631;-77
2022/08/19 11:51:49;;;;;;;;;;;;;;;39.55;19.55;98982.97;4371155;32;34104;-77
2022/08/19 11:54:18;;;;;;;;;;;;;;;39.57;20.01;98977.31;4371328;32;34031;-77
2022/08/19 11:56:48;;;;;;;;;;;;;;;39.31;19.86;98981.94;4387917;32;35173;-77
2022/08/19 11:59:17;;;;;;;;;;;;;;;39.30;20.73;98980.28;4385354;32;33868;-78
2022/08/19 12:01:49;;;;;;;;;;;;;;;39.46;20.81;98981.63;4387420;32;33274;-78
2022/08/19 12:04:19;;;;;;;;;;;;;;;39.64;20.48;98984.34;4386014;32;34002;-77
2022/08/19 12:06:49;;;;;;;;;;;;;;;39.60;19.91;98988.53;4391420;32;34231;-78
2022/08/19 12:09:18;;;;;;;;;;;;;;;39.62;20.37;98981.00;4385857;32;33565;-77
2022/08/19 12:11:48;;;;;;;;;;;;;;;39.61;20.52;98979.37;4387838;32;33801;-77
2022/08/19 12:14:18;;;;;;;;;;;;;;;39.62;20.09;98985.63;4371138;32;33480;-76
2022/08/19 12:16:51;;;;;;;;;;;;;;;39.73;20.63;98982.16;4379984;32;34482;-77
2022/08/19 12:19:24;;;;;;;;;;;;;;;39.59;20.66;98991.50;4390876;32;34883;-77
2022/08/19 12:21:55;;;;;;;;;;;;;;;39.61;19.77;98992.12;4388017;32;33029;-78
2022/08/19 12:24:24;;;;;;;;;;;;;;;39.79;20.02;98978.50;4385627;32;33991;-77
2022/08/19 12:27:01;;;;;;;;;;;;;;;39.75;20.11;98980.03;4385142;32;34434;-79
2022/08/19 12:29:30;;;;;;;;;;;;;;;39.70;20.26;98979.87;4391399;32;34277;-77
2022/08/19 12:32:07;;;;;;;;;;;;;;;39.59;20.18;98977.94;4388778;32;33442;-77
2022/08/19 12:34:41;;;;;;;;;;;;;;;39.67;20.34;98975.72;4384150;32;34216;-77
2022/08/19 12:37:10;;;;;;;;;;;;;;;39.64;19.74;98968.03;4385110;32;34584;-76
2022/08/19 12:39:41;;;;;;;;;;;;;;;39.53;20.19;98960.66;4387778;32;34889;-76
2022/08/19 12:42:10;;;;;;;;;;;;;;;39.79;20.99;98962.22;4391430;32;33345;-77
2022/08/19 12:44:39;;;;;;;;;;;;;;;39.68;20.17;98954.84;4385339;32;33927;-77
2022/08/19 12:47:14;;;;;;;;;;;;;;;39.83;19.94;98959.91;4384415;32;33984;-77
2022/08/19 12:49:46;;;;;;;;;;;;;;;40.12;20.12;98957.47;4387005;32;33614;-78
2022/08/19 12:52:23;;;;;;;;;;;;;;;40.36;19.21;98952.97;4386955;32;33331;-77
2022/08/19 12:54:54;;;;;;;;;;;;;;;40.44;19.27;98949.91;4391109;32;33013;-77
2022/08/19 12:57:23;;;;;;;;;;;;;;;40.59;18.71;98944.84;4385310;32;34479;-76
2022/08/19 13:00:01;;;;;;;;;;;;;;;40.57;19.33;98943.41;4386384;32;33572;-76
2022/08/19 13:02:37;;;;;;;;;;;;;;;40.51;18.71;98951.44;4388141;32;33800;-77
2022/08/19 13:05:16;;;;;;;;;;;;;;;40.39;18.76;98944.34;4386048;32;33978;-77
2022/08/19 13:07:45;;;;;;;;;;;;;;;40.15;18.85;98943.41;4391094;32;34692;-77
2022/08/19 13:10:16;;;;;;;;;;;;;;;39.93;19.27;98943.09;4381097;32;33875;-76
2022/08/19 13:12:46;;;;;;;;;;;;;;;40.00;19.35;98947.34;4372841;32;33421;-76
2022/08/19 13:15:19;;;;;;;;;;;;;;;39.67;19.05;98943.16;4384395;32;33788;-77
2022/08/19 13:17:57;;;;;;;;;;;;;;;39.82;19.59;98936.53;4377443;32;33762;-77
2022/08/19 13:20:27;;;;;;;;;;;;;;;39.95;19.95;98936.38;4376241;32;33711;-76
2022/08/19 13:22:57;;;;;;;;;;;;;;;39.75;19.79;98935.75;4371625;32;32922;-77
2022/08/19 13:25:26;;;;;;;;;;;;;;;39.59;20.06;98929.06;4373478;32;34397;-77
2022/08/19 13:27:58;;;;;;;;;;;;;;;39.56;21.14;98933.06;4373593;32;34991;-77
2022/08/19 13:33:14;;;;;;;;;;;;;;;39.62;21.14;98934.03;4391026;32;33808;-76
2022/08/19 13:35:46;;;;;;;;;;;;;;;39.61;19.80;98943.25;4385423;32;34944;-76
2022/08/19 13:38:16;;;;;;;;;;;;;;;39.80;20.59;98953.06;4382706;32;34556;-76
2022/08/19 13:40:46;;;;;;;;;;;;;;;39.76;20.58;98959.97;4386571;32;34475;-76